sensor_id;sensor_type;location;lat;lon;timestamp;temperature;humidity
34815;DHT22;21030;53.912;15.214;2023-07-29T00:00:46;38.10;28.00
34815;DHT22;21030;53.912;15.214;2023-07-29T00:03:13;38.10;28.10
34815;DHT22;21030;53.912;15.214;2023-07-29T00:05:40;38.00;28.20
34815;DHT22;21030;53.912;15.214;2023-07-29T00:08:07;38.00;28.10
34815;DHT22;21030;53.912;15.214;2023-07-29T00:10:38;38.10;28.30
34815;DHT22;21030;53.912;15.214;2023-07-29T00:13:05;38.10;28.40
34815;DHT22;21030;53.912;15.214;2023-07-29T00:15:32;38.20;28.20
34815;DHT22;21030;53.912;15.214;2023-07-29T00:18:00;38.30;28.00
34815;DHT22;21030;53.912;15.214;2023-07-29T00:20:27;38.30;28.00
34815;DHT22;21030;53.912;15.214;2023-07-29T00:22:54;38.40;28.10
34815;DHT22;21030;53.912;15.214;2023-07-29T00:25:21;38.30;27.90
34815;DHT22;21030;53.912;15.214;2023-07-29T00:27:49;38.30;27.80
34815;DHT22;21030;53.912;15.214;2023-07-29T00:30:16;38.30;27.90
34815;DHT22;21030;53.912;15.214;2023-07-29T00:32:43;38.30;27.80
34815;DHT22;21030;53.912;15.214;2023-07-29T00:35:10;38.30;27.80
34815;DHT22;21030;53.912;15.214;2023-07-29T00:37:37;38.30;27.60
34815;DHT22;21030;53.912;15.214;2023-07-29T00:40:20;38.30;27.60
34815;DHT22;21030;53.912;15.214;2023-07-29T00:42:49;38.20;27.60
34815;DHT22;21030;53.912;15.214;2023-07-29T00:45:18;38.00;27.80
34815;DHT22;21030;53.912;15.214;2023-07-29T00:47:45;37.80;28.10
34815;DHT22;21030;53.912;15.214;2023-07-29T00:50:13;37.70;28.30
34815;DHT22;21030;53.912;15.214;2023-07-29T00:52:41;37.70;28.30
34815;DHT22;21030;53.912;15.214;2023-07-29T00:55:08;37.70;28.20
34815;DHT22;21030;53.912;15.214;2023-07-29T00:57:35;37.70;28.20
34815;DHT22;21030;53.912;15.214;2023-07-29T01:00:03;37.70;28.10
34815;DHT22;21030;53.912;15.214;2023-07-29T01:02:31;37.60;28.20
34815;DHT22;21030;53.912;15.214;2023-07-29T01:05:00;37.70;28.10
34815;DHT22;21030;53.912;15.214;2023-07-29T01:07:44;37.80;28.10
34815;DHT22;21030;53.912;15.214;2023-07-29T01:10:36;37.90;27.90
34815;DHT22;21030;53.912;15.214;2023-07-29T01:13:22;37.90;27.80
34815;DHT22;21030;53.912;15.214;2023-07-29T01:18:28;37.70;27.90
34815;DHT22;21030;53.912;15.214;2023-07-29T01:20:59;37.60;28.00
34815;DHT22;21030;53.912;15.214;2023-07-29T01:23:30;37.60;28.00
34815;DHT22;21030;53.912;15.214;2023-07-29T01:25:58;37.60;28.10
34815;DHT22;21030;53.912;15.214;2023-07-29T01:28:26;37.70;28.00
34815;DHT22;21030;53.912;15.214;2023-07-29T01:31:09;37.80;27.80
34815;DHT22;21030;53.912;15.214;2023-07-29T01:33:44;37.90;27.50
34815;DHT22;21030;53.912;15.214;2023-07-29T01:36:20;38.00;27.50
34815;DHT22;21030;53.912;15.214;2023-07-29T01:38:49;37.90;27.60
34815;DHT22;21030;53.912;15.214;2023-07-29T01:41:18;37.80;27.60
34815;DHT22;21030;53.912;15.214;2023-07-29T01:43:46;37.80;27.30
34815;DHT22;21030;53.912;15.214;2023-07-29T01:46:15;37.80;27.40
34815;DHT22;21030;53.912;15.214;2023-07-29T01:48:42;37.80;27.50
34815;DHT22;21030;53.912;15.214;2023-07-29T01:51:12;37.40;27.50
34815;DHT22;21030;53.912;15.214;2023-07-29T01:53:39;37.50;27.80
34815;DHT22;21030;53.912;15.214;2023-07-29T01:56:06;37.60;27.80
34815;DHT22;21030;53.912;15.214;2023-07-29T01:58:33;37.70;27.80
34815;DHT22;21030;53.912;15.214;2023-07-29T02:01:00;37.50;27.90
34815;DHT22;21030;53.912;15.214;2023-07-29T02:03:28;37.60;28.00
34815;DHT22;21030;53.912;15.214;2023-07-29T02:05:55;37.70;27.90
34815;DHT22;21030;53.912;15.214;2023-07-29T02:08:22;37.80;27.90
34815;DHT22;21030;53.912;15.214;2023-07-29T02:10:49;37.80;27.80
34815;DHT22;21030;53.912;15.214;2023-07-29T02:13:16;37.90;27.70
34815;DHT22;21030;53.912;15.214;2023-07-29T02:15:43;37.80;27.70
34815;DHT22;21030;53.912;15.214;2023-07-29T02:18:10;37.80;27.60
34815;DHT22;21030;53.912;15.214;2023-07-29T02:20:37;38.00;27.60
34815;DHT22;21030;53.912;15.214;2023-07-29T02:23:04;37.90;27.50
34815;DHT22;21030;53.912;15.214;2023-07-29T02:25:35;37.70;27.70
34815;DHT22;21030;53.912;15.214;2023-07-29T02:28:02;37.70;28.00
34815;DHT22;21030;53.912;15.214;2023-07-29T02:30:31;37.80;28.00
34815;DHT22;21030;53.912;15.214;2023-07-29T02:32:58;37.80;28.10
34815;DHT22;21030;53.912;15.214;2023-07-29T02:35:27;37.80;28.00
34815;DHT22;21030;53.912;15.214;2023-07-29T02:37:54;37.80;28.40
34815;DHT22;21030;53.912;15.214;2023-07-29T02:40:21;37.90;27.80
34815;DHT22;21030;53.912;15.214;2023-07-29T02:42:49;38.00;27.60
34815;DHT22;21030;53.912;15.214;2023-07-29T02:45:16;38.00;27.60
34815;DHT22;21030;53.912;15.214;2023-07-29T02:47:44;38.10;27.60
34815;DHT22;21030;53.912;15.214;2023-07-29T02:50:11;38.10;27.60
34815;DHT22;21030;53.912;15.214;2023-07-29T02:52:38;38.10;27.60
34815;DHT22;21030;53.912;15.214;2023-07-29T02:55:05;37.90;27.50
34815;DHT22;21030;53.912;15.214;2023-07-29T02:57:32;37.90;27.60
34815;DHT22;21030;53.912;15.214;2023-07-29T02:59:59;37.80;27.60
34815;DHT22;21030;53.912;15.214;2023-07-29T03:02:26;37.40;27.70
34815;DHT22;21030;53.912;15.214;2023-07-29T03:04:53;37.40;27.70
34815;DHT22;21030;53.912;15.214;2023-07-29T03:07:20;37.40;27.80
34815;DHT22;21030;53.912;15.214;2023-07-29T03:09:47;37.50;27.70
34815;DHT22;21030;53.912;15.214;2023-07-29T03:12:14;37.60;27.60
34815;DHT22;21030;53.912;15.214;2023-07-29T03:14:41;37.60;27.60
34815;DHT22;21030;53.912;15.214;2023-07-29T03:17:09;37.60;27.70
34815;DHT22;21030;53.912;15.214;2023-07-29T03:19:36;37.50;27.60
34815;DHT22;21030;53.912;15.214;2023-07-29T03:22:03;37.50;27.60
34815;DHT22;21030;53.912;15.214;2023-07-29T03:24:30;37.70;27.60
34815;DHT22;21030;53.912;15.214;2023-07-29T03:26:58;37.80;28.00
34815;DHT22;21030;53.912;15.214;2023-07-29T03:29:25;37.80;27.50
34815;DHT22;21030;53.912;15.214;2023-07-29T03:31:52;37.80;27.50
34815;DHT22;21030;53.912;15.214;2023-07-29T03:34:19;37.70;27.60
34815;DHT22;21030;53.912;15.214;2023-07-29T03:36:46;37.80;27.70
34815;DHT22;21030;53.912;15.214;2023-07-29T03:39:14;37.50;27.60
34815;DHT22;21030;53.912;15.214;2023-07-29T03:41:41;37.40;27.80
34815;DHT22;21030;53.912;15.214;2023-07-29T03:44:08;37.40;27.90
34815;DHT22;21030;53.912;15.214;2023-07-29T03:46:35;37.50;27.90
34815;DHT22;21030;53.912;15.214;2023-07-29T03:49:03;37.60;27.80
34815;DHT22;21030;53.912;15.214;2023-07-29T03:51:30;37.70;27.60
34815;DHT22;21030;53.912;15.214;2023-07-29T03:53:57;37.80;27.50
34815;DHT22;21030;53.912;15.214;2023-07-29T03:56:24;37.80;27.50
34815;DHT22;21030;53.912;15.214;2023-07-29T03:58:52;37.90;27.50
34815;DHT22;21030;53.912;15.214;2023-07-29T04:01:19;37.80;27.40
34815;DHT22;21030;53.912;15.214;2023-07-29T04:03:46;37.80;27.60
34815;DHT22;21030;53.912;15.214;2023-07-29T04:06:14;37.80;27.60
34815;DHT22;21030;53.912;15.214;2023-07-29T04:08:41;37.60;27.60
34815;DHT22;21030;53.912;15.214;2023-07-29T04:11:08;37.80;27.80
34815;DHT22;21030;53.912;15.214;2023-07-29T04:13:36;37.70;27.80
34815;DHT22;21030;53.912;15.214;2023-07-29T04:16:04;37.70;27.70
34815;DHT22;21030;53.912;15.214;2023-07-29T04:18:32;37.60;27.90
34815;DHT22;21030;53.912;15.214;2023-07-29T04:20:59;37.80;28.10
34815;DHT22;21030;53.912;15.214;2023-07-29T04:23:26;37.80;28.00
34815;DHT22;21030;53.912;15.214;2023-07-29T04:25:53;37.90;28.00
34815;DHT22;21030;53.912;15.214;2023-07-29T04:28:20;37.70;28.10
34815;DHT22;21030;53.912;15.214;2023-07-29T04:30:47;37.60;28.10
34815;DHT22;21030;53.912;15.214;2023-07-29T04:33:14;37.60;28.60
34815;DHT22;21030;53.912;15.214;2023-07-29T04:35:42;37.60;28.40
34815;DHT22;21030;53.912;15.214;2023-07-29T04:38:08;37.30;28.70
34815;DHT22;21030;53.912;15.214;2023-07-29T04:40:35;37.20;28.80
34815;DHT22;21030;53.912;15.214;2023-07-29T04:43:02;37.50;29.00
34815;DHT22;21030;53.912;15.214;2023-07-29T04:45:30;37.70;28.60
34815;DHT22;21030;53.912;15.214;2023-07-29T04:47:58;37.90;28.30
34815;DHT22;21030;53.912;15.214;2023-07-29T04:50:25;37.90;28.00
34815;DHT22;21030;53.912;15.214;2023-07-29T04:52:52;38.30;28.00
34815;DHT22;21030;53.912;15.214;2023-07-29T04:55:20;38.40;27.70
34815;DHT22;21030;53.912;15.214;2023-07-29T04:57:47;38.60;28.30
34815;DHT22;21030;53.912;15.214;2023-07-29T05:00:15;38.70;27.70
34815;DHT22;21030;53.912;15.214;2023-07-29T05:02:42;38.50;27.90
34815;DHT22;21030;53.912;15.214;2023-07-29T05:05:10;38.60;27.80
34815;DHT22;21030;53.912;15.214;2023-07-29T05:07:37;38.40;28.60
34815;DHT22;21030;53.912;15.214;2023-07-29T05:10:05;38.20;28.00
34815;DHT22;21030;53.912;15.214;2023-07-29T05:12:32;38.40;28.40
34815;DHT22;21030;53.912;15.214;2023-07-29T05:14:59;38.50;28.20
34815;DHT22;21030;53.912;15.214;2023-07-29T05:17:27;38.80;28.20
34815;DHT22;21030;53.912;15.214;2023-07-29T05:19:54;38.80;28.30
34815;DHT22;21030;53.912;15.214;2023-07-29T05:22:21;39.00;28.20
34815;DHT22;21030;53.912;15.214;2023-07-29T05:24:48;38.80;27.90
34815;DHT22;21030;53.912;15.214;2023-07-29T05:27:15;39.10;28.30
34815;DHT22;21030;53.912;15.214;2023-07-29T05:29:42;39.30;28.30
34815;DHT22;21030;53.912;15.214;2023-07-29T05:32:09;39.70;28.10
34815;DHT22;21030;53.912;15.214;2023-07-29T05:34:36;40.10;27.90
34815;DHT22;21030;53.912;15.214;2023-07-29T05:37:03;40.00;27.80
34815;DHT22;21030;53.912;15.214;2023-07-29T05:39:31;40.00;28.00
34815;DHT22;21030;53.912;15.214;2023-07-29T05:41:59;39.70;27.90
34815;DHT22;21030;53.912;15.214;2023-07-29T05:44:29;39.70;28.00
34815;DHT22;21030;53.912;15.214;2023-07-29T05:46:57;39.80;28.10
34815;DHT22;21030;53.912;15.214;2023-07-29T05:49:24;40.00;28.10
34815;DHT22;21030;53.912;15.214;2023-07-29T05:51:51;40.00;28.10
34815;DHT22;21030;53.912;15.214;2023-07-29T05:54:20;40.20;28.00
34815;DHT22;21030;53.912;15.214;2023-07-29T05:56:47;40.00;28.20
34815;DHT22;21030;53.912;15.214;2023-07-29T05:59:14;40.20;28.30
34815;DHT22;21030;53.912;15.214;2023-07-29T06:01:41;40.10;28.10
34815;DHT22;21030;53.912;15.214;2023-07-29T06:04:08;40.30;28.30
34815;DHT22;21030;53.912;15.214;2023-07-29T06:06:35;40.30;28.40
34815;DHT22;21030;53.912;15.214;2023-07-29T06:09:03;40.20;28.30
34815;DHT22;21030;53.912;15.214;2023-07-29T06:11:30;40.20;28.40
34815;DHT22;21030;53.912;15.214;2023-07-29T06:13:57;40.00;28.90
34815;DHT22;21030;53.912;15.214;2023-07-29T06:16:24;40.20;28.70
34815;DHT22;21030;53.912;15.214;2023-07-29T06:18:51;39.60;28.80
34815;DHT22;21030;53.912;15.214;2023-07-29T06:21:19;39.70;28.90
34815;DHT22;21030;53.912;15.214;2023-07-29T06:23:47;39.60;29.00
34815;DHT22;21030;53.912;15.214;2023-07-29T06:26:15;39.50;29.60
34815;DHT22;21030;53.912;15.214;2023-07-29T06:28:42;39.30;29.30
34815;DHT22;21030;53.912;15.214;2023-07-29T06:31:09;38.90;29.30
34815;DHT22;21030;53.912;15.214;2023-07-29T06:33:37;39.20;29.50
34815;DHT22;21030;53.912;15.214;2023-07-29T06:36:04;38.80;29.60
34815;DHT22;21030;53.912;15.214;2023-07-29T06:38:31;38.60;29.70
34815;DHT22;21030;53.912;15.214;2023-07-29T06:40:58;38.80;30.30
34815;DHT22;21030;53.912;15.214;2023-07-29T06:43:25;39.00;30.00
34815;DHT22;21030;53.912;15.214;2023-07-29T06:45:52;38.80;29.90
34815;DHT22;21030;53.912;15.214;2023-07-29T06:48:20;38.30;30.50
34815;DHT22;21030;53.912;15.214;2023-07-29T06:50:47;38.40;30.60
34815;DHT22;21030;53.912;15.214;2023-07-29T06:53:14;38.20;30.50
34815;DHT22;21030;53.912;15.214;2023-07-29T06:55:41;38.60;31.00
34815;DHT22;21030;53.912;15.214;2023-07-29T06:58:09;38.80;30.60
34815;DHT22;21030;53.912;15.214;2023-07-29T07:00:36;39.30;30.50
34815;DHT22;21030;53.912;15.214;2023-07-29T07:03:03;38.80;30.60
34815;DHT22;21030;53.912;15.214;2023-07-29T07:05:30;38.70;30.50
34815;DHT22;21030;53.912;15.214;2023-07-29T07:07:57;38.80;30.60
34815;DHT22;21030;53.912;15.214;2023-07-29T07:10:24;39.40;30.50
34815;DHT22;21030;53.912;15.214;2023-07-29T07:12:51;39.60;30.00
34815;DHT22;21030;53.912;15.214;2023-07-29T07:15:18;39.80;30.00
34815;DHT22;21030;53.912;15.214;2023-07-29T07:17:45;39.90;30.00
34815;DHT22;21030;53.912;15.214;2023-07-29T07:20:12;40.00;29.90
34815;DHT22;21030;53.912;15.214;2023-07-29T07:22:39;39.90;29.80
34815;DHT22;21030;53.912;15.214;2023-07-29T07:25:07;39.90;30.00
34815;DHT22;21030;53.912;15.214;2023-07-29T07:27:34;39.20;30.40
34815;DHT22;21030;53.912;15.214;2023-07-29T07:30:02;39.00;31.30
34815;DHT22;21030;53.912;15.214;2023-07-29T07:32:29;38.80;31.20
34815;DHT22;21030;53.912;15.214;2023-07-29T07:34:56;38.80;31.80
34815;DHT22;21030;53.912;15.214;2023-07-29T07:37:23;38.90;31.80
34815;DHT22;21030;53.912;15.214;2023-07-29T07:39:51;39.00;31.80
34815;DHT22;21030;53.912;15.214;2023-07-29T07:42:18;39.50;31.80
34815;DHT22;21030;53.912;15.214;2023-07-29T07:44:45;39.90;31.60
34815;DHT22;21030;53.912;15.214;2023-07-29T07:47:12;40.00;31.30
34815;DHT22;21030;53.912;15.214;2023-07-29T07:49:39;40.30;31.30
34815;DHT22;21030;53.912;15.214;2023-07-29T07:52:06;40.30;31.20
34815;DHT22;21030;53.912;15.214;2023-07-29T07:54:33;40.60;31.30
34815;DHT22;21030;53.912;15.214;2023-07-29T07:57:01;40.20;31.10
34815;DHT22;21030;53.912;15.214;2023-07-29T07:59:27;40.60;31.10
34815;DHT22;21030;53.912;15.214;2023-07-29T08:01:54;40.80;30.90
34815;DHT22;21030;53.912;15.214;2023-07-29T08:04:21;41.00;30.50
34815;DHT22;21030;53.912;15.214;2023-07-29T08:06:48;41.20;30.50
34815;DHT22;21030;53.912;15.214;2023-07-29T08:09:15;41.30;30.30
34815;DHT22;21030;53.912;15.214;2023-07-29T08:11:42;41.60;30.00
34815;DHT22;21030;53.912;15.214;2023-07-29T08:14:10;41.50;29.90
34815;DHT22;21030;53.912;15.214;2023-07-29T08:16:37;41.50;30.00
34815;DHT22;21030;53.912;15.214;2023-07-29T08:19:04;41.80;29.80
34815;DHT22;21030;53.912;15.214;2023-07-29T08:21:31;41.90;29.80
34815;DHT22;21030;53.912;15.214;2023-07-29T08:23:58;41.90;29.50
34815;DHT22;21030;53.912;15.214;2023-07-29T08:26:25;42.00;29.60
34815;DHT22;21030;53.912;15.214;2023-07-29T08:28:55;42.30;29.60
34815;DHT22;21030;53.912;15.214;2023-07-29T08:31:23;42.10;29.50
34815;DHT22;21030;53.912;15.214;2023-07-29T08:33:50;41.20;30.00
34815;DHT22;21030;53.912;15.214;2023-07-29T08:36:18;40.60;30.00
34815;DHT22;21030;53.912;15.214;2023-07-29T08:38:45;40.80;30.70
34815;DHT22;21030;53.912;15.214;2023-07-29T08:41:25;40.30;31.40
34815;DHT22;21030;53.912;15.214;2023-07-29T08:46:39;40.60;30.00
34815;DHT22;21030;53.912;15.214;2023-07-29T08:49:07;40.90;29.80
34815;DHT22;21030;53.912;15.214;2023-07-29T08:51:35;41.60;29.40
34815;DHT22;21030;53.912;15.214;2023-07-29T08:54:03;42.40;29.30
34815;DHT22;21030;53.912;15.214;2023-07-29T08:56:30;42.20;28.90
34815;DHT22;21030;53.912;15.214;2023-07-29T08:59:02;42.10;28.50
34815;DHT22;21030;53.912;15.214;2023-07-29T09:01:31;42.60;28.70
34815;DHT22;21030;53.912;15.214;2023-07-29T09:03:59;43.60;28.50
34815;DHT22;21030;53.912;15.214;2023-07-29T09:06:27;43.30;28.10
34815;DHT22;21030;53.912;15.214;2023-07-29T09:08:57;43.40;28.10
34815;DHT22;21030;53.912;15.214;2023-07-29T09:11:27;43.30;27.70
34815;DHT22;21030;53.912;15.214;2023-07-29T09:13:54;43.20;27.90
34815;DHT22;21030;53.912;15.214;2023-07-29T09:16:22;42.90;27.40
34815;DHT22;21030;53.912;15.214;2023-07-29T09:18:50;41.90;28.50
34815;DHT22;21030;53.912;15.214;2023-07-29T09:21:23;42.80;28.50
34815;DHT22;21030;53.912;15.214;2023-07-29T09:23:51;41.50;27.60
34815;DHT22;21030;53.912;15.214;2023-07-29T09:26:28;41.90;27.90
34815;DHT22;21030;53.912;15.214;2023-07-29T09:28:57;41.80;27.60
34815;DHT22;21030;53.912;15.214;2023-07-29T09:31:26;42.60;27.70
34815;DHT22;21030;53.912;15.214;2023-07-29T09:34:01;42.90;27.30
34815;DHT22;21030;53.912;15.214;2023-07-29T09:36:31;43.50;27.20
34815;DHT22;21030;53.912;15.214;2023-07-29T09:38:59;43.50;26.20
34815;DHT22;21030;53.912;15.214;2023-07-29T09:41:27;42.80;26.40
34815;DHT22;21030;53.912;15.214;2023-07-29T09:44:00;42.80;26.70
34815;DHT22;21030;53.912;15.214;2023-07-29T09:46:37;42.70;26.50
34815;DHT22;21030;53.912;15.214;2023-07-29T09:49:07;42.90;26.80
34815;DHT22;21030;53.912;15.214;2023-07-29T09:51:39;42.80;27.30
34815;DHT22;21030;53.912;15.214;2023-07-29T09:54:07;42.80;26.90
34815;DHT22;21030;53.912;15.214;2023-07-29T09:56:41;43.10;26.70
34815;DHT22;21030;53.912;15.214;2023-07-29T09:59:09;43.10;26.80
34815;DHT22;21030;53.912;15.214;2023-07-29T10:01:37;43.40;26.60
34815;DHT22;21030;53.912;15.214;2023-07-29T10:04:05;43.10;26.40
34815;DHT22;21030;53.912;15.214;2023-07-29T10:06:35;42.40;27.10
34815;DHT22;21030;53.912;15.214;2023-07-29T10:09:04;42.90;27.30
34815;DHT22;21030;53.912;15.214;2023-07-29T10:11:32;43.10;26.70
34815;DHT22;21030;53.912;15.214;2023-07-29T10:14:01;42.60;26.70
34815;DHT22;21030;53.912;15.214;2023-07-29T10:16:36;42.50;27.00
34815;DHT22;21030;53.912;15.214;2023-07-29T10:19:07;42.00;27.50
34815;DHT22;21030;53.912;15.214;2023-07-29T10:21:44;41.70;27.80
34815;DHT22;21030;53.912;15.214;2023-07-29T10:24:16;41.90;28.30
34815;DHT22;21030;53.912;15.214;2023-07-29T10:26:46;41.80;28.00
34815;DHT22;21030;53.912;15.214;2023-07-29T10:29:20;41.90;28.10
34815;DHT22;21030;53.912;15.214;2023-07-29T10:31:52;42.20;28.20
34815;DHT22;21030;53.912;15.214;2023-07-29T10:34:26;41.60;27.80
34815;DHT22;21030;53.912;15.214;2023-07-29T10:36:53;41.20;28.50
34815;DHT22;21030;53.912;15.214;2023-07-29T10:39:21;41.20;29.10
34815;DHT22;21030;53.912;15.214;2023-07-29T10:42:00;41.20;28.30
34815;DHT22;21030;53.912;15.214;2023-07-29T10:47:14;41.60;27.50
34815;DHT22;21030;53.912;15.214;2023-07-29T10:49:42;42.50;27.90
34815;DHT22;21030;53.912;15.214;2023-07-29T10:52:14;42.90;27.10
34815;DHT22;21030;53.912;15.214;2023-07-29T10:54:49;43.30;26.20
34815;DHT22;21030;53.912;15.214;2023-07-29T10:57:30;43.10;26.70
34815;DHT22;21030;53.912;15.214;2023-07-29T10:59:58;43.20;25.90
34815;DHT22;21030;53.912;15.214;2023-07-29T11:02:31;43.00;25.80
34815;DHT22;21030;53.912;15.214;2023-07-29T11:04:59;43.30;26.40
34815;DHT22;21030;53.912;15.214;2023-07-29T11:07:27;43.20;26.40
34815;DHT22;21030;53.912;15.214;2023-07-29T11:09:59;43.40;26.20
34815;DHT22;21030;53.912;15.214;2023-07-29T11:12:45;42.70;26.40
34815;DHT22;21030;53.912;15.214;2023-07-29T11:15:23;42.60;26.90
34815;DHT22;21030;53.912;15.214;2023-07-29T11:17:58;42.00;27.10
34815;DHT22;21030;53.912;15.214;2023-07-29T11:20:30;41.90;27.40
34815;DHT22;21030;53.912;15.214;2023-07-29T11:22:59;41.70;27.70
34815;DHT22;21030;53.912;15.214;2023-07-29T11:25:28;41.80;28.00
34815;DHT22;21030;53.912;15.214;2023-07-29T11:27:57;41.50;28.30
34815;DHT22;21030;53.912;15.214;2023-07-29T11:30:25;41.50;28.50
34815;DHT22;21030;53.912;15.214;2023-07-29T11:33:00;40.70;29.00
34815;DHT22;21030;53.912;15.214;2023-07-29T11:35:28;40.50;29.30
34815;DHT22;21030;53.912;15.214;2023-07-29T11:37:55;40.50;30.00
34815;DHT22;21030;53.912;15.214;2023-07-29T11:40:25;41.00;29.30
34815;DHT22;21030;53.912;15.214;2023-07-29T11:42:53;41.90;29.20
34815;DHT22;21030;53.912;15.214;2023-07-29T11:45:22;42.70;28.30
34815;DHT22;21030;53.912;15.214;2023-07-29T11:48:01;43.20;27.50
34815;DHT22;21030;53.912;15.214;2023-07-29T11:50:29;43.50;27.10
34815;DHT22;21030;53.912;15.214;2023-07-29T11:52:56;43.60;27.30
34815;DHT22;21030;53.912;15.214;2023-07-29T11:55:23;44.10;27.00
34815;DHT22;21030;53.912;15.214;2023-07-29T11:57:51;44.40;26.90
34815;DHT22;21030;53.912;15.214;2023-07-29T12:00:20;44.20;26.20
34815;DHT22;21030;53.912;15.214;2023-07-29T12:02:49;43.60;26.80
34815;DHT22;21030;53.912;15.214;2023-07-29T12:05:17;44.10;26.70
34815;DHT22;21030;53.912;15.214;2023-07-29T12:07:45;44.90;26.40
34815;DHT22;21030;53.912;15.214;2023-07-29T12:10:12;45.20;26.00
34815;DHT22;21030;53.912;15.214;2023-07-29T12:12:47;44.50;25.50
34815;DHT22;21030;53.912;15.214;2023-07-29T12:15:23;44.40;25.80
34815;DHT22;21030;53.912;15.214;2023-07-29T12:17:53;43.80;26.10
34815;DHT22;21030;53.912;15.214;2023-07-29T12:20:21;43.80;26.10
34815;DHT22;21030;53.912;15.214;2023-07-29T12:22:56;43.90;26.50
34815;DHT22;21030;53.912;15.214;2023-07-29T12:25:23;43.80;26.40
34815;DHT22;21030;53.912;15.214;2023-07-29T12:27:51;43.80;26.70
34815;DHT22;21030;53.912;15.214;2023-07-29T12:30:21;44.30;26.60
34815;DHT22;21030;53.912;15.214;2023-07-29T12:32:49;43.90;26.60
34815;DHT22;21030;53.912;15.214;2023-07-29T12:35:16;44.10;26.40
34815;DHT22;21030;53.912;15.214;2023-07-29T12:37:43;44.10;26.60
34815;DHT22;21030;53.912;15.214;2023-07-29T12:40:23;43.70;26.70
34815;DHT22;21030;53.912;15.214;2023-07-29T12:42:51;44.10;26.70
34815;DHT22;21030;53.912;15.214;2023-07-29T12:45:18;44.20;26.50
34815;DHT22;21030;53.912;15.214;2023-07-29T12:47:46;44.10;26.80
34815;DHT22;21030;53.912;15.214;2023-07-29T12:50:13;44.00;26.70
34815;DHT22;21030;53.912;15.214;2023-07-29T12:52:40;44.20;26.60
34815;DHT22;21030;53.912;15.214;2023-07-29T12:55:07;44.30;26.70
34815;DHT22;21030;53.912;15.214;2023-07-29T12:57:43;44.10;26.80
34815;DHT22;21030;53.912;15.214;2023-07-29T13:00:11;44.10;27.40
34815;DHT22;21030;53.912;15.214;2023-07-29T13:02:39;44.10;27.50
34815;DHT22;21030;53.912;15.214;2023-07-29T13:05:10;44.10;28.80
34815;DHT22;21030;53.912;15.214;2023-07-29T13:07:39;43.80;29.00
34815;DHT22;21030;53.912;15.214;2023-07-29T13:10:07;41.00;30.80
34815;DHT22;21030;53.912;15.214;2023-07-29T13:12:34;38.00;36.50
34815;DHT22;21030;53.912;15.214;2023-07-29T13:15:02;37.30;44.80
34815;DHT22;21030;53.912;15.214;2023-07-29T13:17:29;38.00;46.60
34815;DHT22;21030;53.912;15.214;2023-07-29T13:19:56;37.80;40.70
34815;DHT22;21030;53.912;15.214;2023-07-29T13:22:23;37.10;40.60
34815;DHT22;21030;53.912;15.214;2023-07-29T13:24:50;36.80;38.90
34815;DHT22;21030;53.912;15.214;2023-07-29T13:27:17;36.80;39.60
34815;DHT22;21030;53.912;15.214;2023-07-29T13:29:44;37.00;40.30
34815;DHT22;21030;53.912;15.214;2023-07-29T13:32:12;36.60;39.80
34815;DHT22;21030;53.912;15.214;2023-07-29T13:34:39;34.70;42.80
34815;DHT22;21030;53.912;15.214;2023-07-29T13:37:06;33.60;45.90
34815;DHT22;21030;53.912;15.214;2023-07-29T13:39:34;35.40;47.50
34815;DHT22;21030;53.912;15.214;2023-07-29T13:42:01;35.60;42.40
34815;DHT22;21030;53.912;15.214;2023-07-29T13:44:28;36.00;46.50
34815;DHT22;21030;53.912;15.214;2023-07-29T13:46:55;36.20;44.40
34815;DHT22;21030;53.912;15.214;2023-07-29T13:49:22;37.00;45.40
34815;DHT22;21030;53.912;15.214;2023-07-29T13:51:49;37.00;39.50
34815;DHT22;21030;53.912;15.214;2023-07-29T13:54:16;37.60;42.10
34815;DHT22;21030;53.912;15.214;2023-07-29T13:56:43;38.40;41.40
34815;DHT22;21030;53.912;15.214;2023-07-29T13:59:10;38.70;39.50
34815;DHT22;21030;53.912;15.214;2023-07-29T14:01:37;38.60;37.20
34815;DHT22;21030;53.912;15.214;2023-07-29T14:04:04;38.30;36.40
34815;DHT22;21030;53.912;15.214;2023-07-29T14:06:32;37.20;37.10
34815;DHT22;21030;53.912;15.214;2023-07-29T14:09:11;37.50;39.20
34815;DHT22;21030;53.912;15.214;2023-07-29T14:11:38;38.20;39.30
34815;DHT22;21030;53.912;15.214;2023-07-29T14:14:07;38.80;38.60
34815;DHT22;21030;53.912;15.214;2023-07-29T14:16:34;39.20;37.40
34815;DHT22;21030;53.912;15.214;2023-07-29T14:19:02;39.30;37.60
34815;DHT22;21030;53.912;15.214;2023-07-29T14:21:29;39.50;37.10
34815;DHT22;21030;53.912;15.214;2023-07-29T14:23:56;39.60;37.50
34815;DHT22;21030;53.912;15.214;2023-07-29T14:26:23;39.70;37.80
34815;DHT22;21030;53.912;15.214;2023-07-29T14:28:50;39.90;37.90
34815;DHT22;21030;53.912;15.214;2023-07-29T14:31:17;40.10;37.20
34815;DHT22;21030;53.912;15.214;2023-07-29T14:33:45;40.20;36.10
34815;DHT22;21030;53.912;15.214;2023-07-29T14:36:14;40.20;36.00
34815;DHT22;21030;53.912;15.214;2023-07-29T14:38:41;40.30;36.20
34815;DHT22;21030;53.912;15.214;2023-07-29T14:41:08;40.00;34.40
34815;DHT22;21030;53.912;15.214;2023-07-29T14:43:36;40.20;36.90
34815;DHT22;21030;53.912;15.214;2023-07-29T14:46:03;40.30;36.00
34815;DHT22;21030;53.912;15.214;2023-07-29T14:48:30;40.30;36.20
34815;DHT22;21030;53.912;15.214;2023-07-29T14:50:57;40.10;35.90
34815;DHT22;21030;53.912;15.214;2023-07-29T14:53:24;39.70;34.90
34815;DHT22;21030;53.912;15.214;2023-07-29T14:55:52;40.00;35.30
34815;DHT22;21030;53.912;15.214;2023-07-29T14:58:19;40.10;36.30
34815;DHT22;21030;53.912;15.214;2023-07-29T15:00:46;40.30;36.30
34815;DHT22;21030;53.912;15.214;2023-07-29T15:03:13;40.40;36.00
34815;DHT22;21030;53.912;15.214;2023-07-29T15:05:40;40.60;35.70
34815;DHT22;21030;53.912;15.214;2023-07-29T15:08:07;40.70;35.90
34815;DHT22;21030;53.912;15.214;2023-07-29T15:10:34;40.70;35.80
34815;DHT22;21030;53.912;15.214;2023-07-29T15:13:02;40.70;35.50
34815;DHT22;21030;53.912;15.214;2023-07-29T15:15:31;40.30;35.10
34815;DHT22;21030;53.912;15.214;2023-07-29T15:17:59;40.10;35.20
34815;DHT22;21030;53.912;15.214;2023-07-29T15:20:26;39.90;36.20
34815;DHT22;21030;53.912;15.214;2023-07-29T15:22:53;39.90;36.70
34815;DHT22;21030;53.912;15.214;2023-07-29T15:25:20;40.00;36.10
34815;DHT22;21030;53.912;15.214;2023-07-29T15:27:48;39.90;35.20
34815;DHT22;21030;53.912;15.214;2023-07-29T15:30:15;39.50;35.30